abstractdns.com alexa rank chart, abstractdns.com alexa rank daily changes

abstractdns.com alexa rank chart, abstractdns.com alexa rank daily changes

abstractdns.com
Actual rank:
712 148

RANK HISTORY

Date Rank Diff
2017/06/26 712 148 +9 152
2017/06/25 702 996 +6 706
2017/06/24 696 290 -4 987
2017/06/23 701 277 +20 014
2017/06/22 681 263 +26 686
2017/06/21 654 577 -21 264
2017/06/20 675 841 +6 150
2017/06/19 669 691 -4 087
2017/06/18 673 778 +7
2017/06/17 673 771 +702
2017/06/16 673 069 +2 501
2017/06/15 670 568 +2 104
2017/06/14 668 464 -16 840
2017/06/13 685 304 +6 759
2017/06/12 678 545 +17 568
2017/06/11 660 977 -32 009
2017/06/10 692 986 -37 150
2017/06/09 730 136 -25 254
2017/06/08 755 390 -22 638
2017/06/07 778 028 -34 310
2017/06/06 812 338 -57 228
2017/06/05 869 566 +2 849
2017/06/04 866 717 -16 616
2017/06/03 883 333 -40 219
2017/06/02 923 552 +9 830
2017/06/01 913 722 -4 101
2017/05/31 917 823 +49 825
2017/05/30 867 998 -26 633
2017/05/29 894 631 -20 176
2017/05/28 914 807 -50 108
2017/05/27 964 915 -751
2017/05/26 965 666 +28 298
2017/05/25 937 368 +30 526
2017/05/24 906 842 -51 847
2017/05/23 958 689 -4 485
2017/05/22 963 174 +9 514
2017/05/17 953 660 -2 418
2017/05/16 956 078 -30 289
2017/05/15 986 367 -448
2017/05/14 986 815 -1 773
2017/05/13 988 588 +15 111
2017/05/02 973 477

WIDGET FOR YOUR SITE

DOMAINS WITH THE NEAREST RANK

Domain Rank
game-tracker.ru 712 143
sltnyc.com 712 144
fuckingyoung.org 712 145
broam.org 712 146
freejeans.ru 712 147
abstractdns.com 712 148
poliklinika-sunce.hr 712 149
vft.org 712 150
cinelounge.org 712 151
hocexcelnangcao.net 712 152
novacg.no 712 153

DOMAINS WITH THE NEAREST RANK BY TLD .com

Domain Rank
shinjuku-sportscenter.com 712 134
duckware.com 712 135
speedqueencommercial.com 712 141
bangbang93.com 712 142
sltnyc.com 712 144
abstractdns.com 712 148
soundscrate.com 712 154
laconiamcweek.com 712 156
freefrombroke.com 712 157
omgallthiscash.com 712 158
mp3whois.com 712 162